sensor_id;sensor_type;location;lat;lon;timestamp;P1;durP1;ratioP1;P2;durP2;ratioP2
32365;SDS011;18837;46.832;16.838;2023-04-30T00:01:56;2.17;;;1.87;;
32365;SDS011;18837;46.832;16.838;2023-04-30T00:04:22;1.90;;;1.67;;
32365;SDS011;18837;46.832;16.838;2023-04-30T00:06:48;2.50;;;1.90;;
32365;SDS011;18837;46.832;16.838;2023-04-30T00:09:14;2.03;;;1.90;;
32365;SDS011;18837;46.832;16.838;2023-04-30T00:11:40;1.80;;;1.60;;
32365;SDS011;18837;46.832;16.838;2023-04-30T00:14:06;1.90;;;1.67;;
32365;SDS011;18837;46.832;16.838;2023-04-30T00:16:34;1.73;;;1.60;;
32365;SDS011;18837;46.832;16.838;2023-04-30T00:18:59;2.47;;;1.60;;
32365;SDS011;18837;46.832;16.838;2023-04-30T00:21:25;2.03;;;1.60;;
32365;SDS011;18837;46.832;16.838;2023-04-30T00:23:51;1.63;;;1.40;;
32365;SDS011;18837;46.832;16.838;2023-04-30T00:26:17;1.60;;;1.50;;
32365;SDS011;18837;46.832;16.838;2023-04-30T00:28:43;1.57;;;1.47;;
32365;SDS011;18837;46.832;16.838;2023-04-30T00:31:09;2.20;;;1.43;;
32365;SDS011;18837;46.832;16.838;2023-04-30T00:33:34;2.10;;;1.53;;
32365;SDS011;18837;46.832;16.838;2023-04-30T00:36:00;1.80;;;1.70;;
32365;SDS011;18837;46.832;16.838;2023-04-30T00:38:26;2.23;;;1.70;;
32365;SDS011;18837;46.832;16.838;2023-04-30T00:40:52;1.53;;;1.33;;
32365;SDS011;18837;46.832;16.838;2023-04-30T00:43:18;1.60;;;1.50;;
32365;SDS011;18837;46.832;16.838;2023-04-30T00:45:44;1.90;;;1.47;;
32365;SDS011;18837;46.832;16.838;2023-04-30T00:48:09;1.53;;;1.43;;
32365;SDS011;18837;46.832;16.838;2023-04-30T00:50:35;2.07;;;1.53;;
32365;SDS011;18837;46.832;16.838;2023-04-30T00:53:02;1.87;;;1.47;;
32365;SDS011;18837;46.832;16.838;2023-04-30T00:55:28;2.00;;;1.67;;
32365;SDS011;18837;46.832;16.838;2023-04-30T00:57:54;1.70;;;1.60;;
32365;SDS011;18837;46.832;16.838;2023-04-30T01:00:21;2.60;;;1.40;;
32365;SDS011;18837;46.832;16.838;2023-04-30T01:02:47;1.53;;;1.43;;
32365;SDS011;18837;46.832;16.838;2023-04-30T01:05:14;1.63;;;1.53;;
32365;SDS011;18837;46.832;16.838;2023-04-30T01:07:40;1.37;;;1.27;;
32365;SDS011;18837;46.832;16.838;2023-04-30T01:10:09;1.57;;;1.30;;
32365;SDS011;18837;46.832;16.838;2023-04-30T01:12:38;1.33;;;1.23;;
32365;SDS011;18837;46.832;16.838;2023-04-30T01:15:26;1.60;;;1.50;;
32365;SDS011;18837;46.832;16.838;2023-04-30T01:18:09;1.60;;;1.50;;
32365;SDS011;18837;46.832;16.838;2023-04-30T01:20:48;1.40;;;1.30;;
32365;SDS011;18837;46.832;16.838;2023-04-30T01:23:25;1.67;;;1.57;;
32365;SDS011;18837;46.832;16.838;2023-04-30T01:29:01;1.67;;;1.57;;
32365;SDS011;18837;46.832;16.838;2023-04-30T01:31:28;1.50;;;1.40;;
32365;SDS011;18837;46.832;16.838;2023-04-30T01:33:54;2.17;;;1.50;;
32365;SDS011;18837;46.832;16.838;2023-04-30T01:36:34;1.67;;;1.57;;
32365;SDS011;18837;46.832;16.838;2023-04-30T01:39:27;2.77;;;1.50;;
32365;SDS011;18837;46.832;16.838;2023-04-30T01:42:20;1.93;;;1.40;;
32365;SDS011;18837;46.832;16.838;2023-04-30T01:45:07;1.80;;;1.70;;
32365;SDS011;18837;46.832;16.838;2023-04-30T01:47:49;1.60;;;1.50;;
32365;SDS011;18837;46.832;16.838;2023-04-30T01:50:24;1.53;;;1.43;;
32365;SDS011;18837;46.832;16.838;2023-04-30T01:53:12;1.70;;;1.60;;
32365;SDS011;18837;46.832;16.838;2023-04-30T01:55:43;2.47;;;1.67;;
32365;SDS011;18837;46.832;16.838;2023-04-30T01:58:15;1.97;;;1.60;;
32365;SDS011;18837;46.832;16.838;2023-04-30T02:00:43;1.53;;;1.30;;
32365;SDS011;18837;46.832;16.838;2023-04-30T02:03:08;1.60;;;1.50;;
32365;SDS011;18837;46.832;16.838;2023-04-30T02:05:34;1.57;;;1.47;;
32365;SDS011;18837;46.832;16.838;2023-04-30T02:08:00;1.77;;;1.40;;
32365;SDS011;18837;46.832;16.838;2023-04-30T02:10:26;3.33;;;1.80;;
32365;SDS011;18837;46.832;16.838;2023-04-30T02:12:53;1.50;;;1.40;;
32365;SDS011;18837;46.832;16.838;2023-04-30T02:15:19;1.70;;;1.60;;
32365;SDS011;18837;46.832;16.838;2023-04-30T02:17:45;1.70;;;1.60;;
32365;SDS011;18837;46.832;16.838;2023-04-30T02:20:10;2.40;;;1.53;;
32365;SDS011;18837;46.832;16.838;2023-04-30T02:22:36;1.90;;;1.80;;
32365;SDS011;18837;46.832;16.838;2023-04-30T02:25:02;1.80;;;1.50;;
32365;SDS011;18837;46.832;16.838;2023-04-30T02:27:29;1.63;;;1.53;;
32365;SDS011;18837;46.832;16.838;2023-04-30T02:29:56;1.70;;;1.60;;
32365;SDS011;18837;46.832;16.838;2023-04-30T02:32:22;1.70;;;1.60;;
32365;SDS011;18837;46.832;16.838;2023-04-30T02:34:48;1.73;;;1.63;;
32365;SDS011;18837;46.832;16.838;2023-04-30T02:37:14;1.90;;;1.80;;
32365;SDS011;18837;46.832;16.838;2023-04-30T02:39:40;1.73;;;1.63;;
32365;SDS011;18837;46.832;16.838;2023-04-30T02:42:06;1.80;;;1.70;;
32365;SDS011;18837;46.832;16.838;2023-04-30T02:44:32;1.93;;;1.80;;
32365;SDS011;18837;46.832;16.838;2023-04-30T02:46:59;3.20;;;1.93;;
32365;SDS011;18837;46.832;16.838;2023-04-30T02:49:25;2.20;;;2.00;;
32365;SDS011;18837;46.832;16.838;2023-04-30T02:51:51;2.53;;;2.33;;
32365;SDS011;18837;46.832;16.838;2023-04-30T02:54:17;2.40;;;2.20;;
32365;SDS011;18837;46.832;16.838;2023-04-30T02:56:43;2.07;;;1.80;;
32365;SDS011;18837;46.832;16.838;2023-04-30T02:59:09;2.17;;;2.03;;
32365;SDS011;18837;46.832;16.838;2023-04-30T03:01:35;2.00;;;1.90;;
32365;SDS011;18837;46.832;16.838;2023-04-30T03:04:01;2.30;;;2.10;;
32365;SDS011;18837;46.832;16.838;2023-04-30T03:06:30;2.30;;;2.10;;
32365;SDS011;18837;46.832;16.838;2023-04-30T03:08:56;2.03;;;1.90;;
32365;SDS011;18837;46.832;16.838;2023-04-30T03:11:22;2.27;;;2.07;;
32365;SDS011;18837;46.832;16.838;2023-04-30T03:13:48;2.13;;;1.93;;
32365;SDS011;18837;46.832;16.838;2023-04-30T03:16:18;2.17;;;2.00;;
32365;SDS011;18837;46.832;16.838;2023-04-30T03:18:45;2.20;;;2.00;;
32365;SDS011;18837;46.832;16.838;2023-04-30T03:21:11;2.20;;;2.00;;
32365;SDS011;18837;46.832;16.838;2023-04-30T03:23:37;3.47;;;2.20;;
32365;SDS011;18837;46.832;16.838;2023-04-30T03:26:03;2.37;;;2.17;;
32365;SDS011;18837;46.832;16.838;2023-04-30T03:28:29;2.43;;;2.23;;
32365;SDS011;18837;46.832;16.838;2023-04-30T03:30:54;2.40;;;2.20;;
32365;SDS011;18837;46.832;16.838;2023-04-30T03:33:20;2.10;;;1.90;;
32365;SDS011;18837;46.832;16.838;2023-04-30T03:35:46;2.37;;;2.17;;
32365;SDS011;18837;46.832;16.838;2023-04-30T03:38:13;2.23;;;2.10;;
32365;SDS011;18837;46.832;16.838;2023-04-30T03:40:39;2.83;;;2.60;;
32365;SDS011;18837;46.832;16.838;2023-04-30T03:43:04;3.07;;;2.27;;
32365;SDS011;18837;46.832;16.838;2023-04-30T03:45:30;2.30;;;2.10;;
32365;SDS011;18837;46.832;16.838;2023-04-30T03:47:56;2.57;;;2.37;;
32365;SDS011;18837;46.832;16.838;2023-04-30T03:50:21;2.60;;;2.40;;
32365;SDS011;18837;46.832;16.838;2023-04-30T03:52:47;2.80;;;2.50;;
32365;SDS011;18837;46.832;16.838;2023-04-30T03:55:13;2.37;;;2.17;;
32365;SDS011;18837;46.832;16.838;2023-04-30T03:57:39;3.53;;;2.87;;
32365;SDS011;18837;46.832;16.838;2023-04-30T04:00:05;2.60;;;2.40;;
32365;SDS011;18837;46.832;16.838;2023-04-30T04:02:33;2.93;;;2.73;;
32365;SDS011;18837;46.832;16.838;2023-04-30T04:05:00;2.90;;;2.57;;
32365;SDS011;18837;46.832;16.838;2023-04-30T04:07:28;3.30;;;3.00;;
32365;SDS011;18837;46.832;16.838;2023-04-30T04:09:54;2.50;;;2.23;;
32365;SDS011;18837;46.832;16.838;2023-04-30T04:12:20;2.90;;;2.70;;
32365;SDS011;18837;46.832;16.838;2023-04-30T04:14:46;2.77;;;2.57;;
32365;SDS011;18837;46.832;16.838;2023-04-30T04:17:12;2.60;;;2.37;;
32365;SDS011;18837;46.832;16.838;2023-04-30T04:19:38;3.13;;;2.47;;
32365;SDS011;18837;46.832;16.838;2023-04-30T04:22:04;2.87;;;2.67;;
32365;SDS011;18837;46.832;16.838;2023-04-30T04:24:30;3.10;;;2.80;;
32365;SDS011;18837;46.832;16.838;2023-04-30T04:26:57;3.03;;;2.60;;
32365;SDS011;18837;46.832;16.838;2023-04-30T04:29:23;2.77;;;2.57;;
32365;SDS011;18837;46.832;16.838;2023-04-30T04:31:49;3.90;;;2.40;;
32365;SDS011;18837;46.832;16.838;2023-04-30T04:34:15;2.80;;;2.50;;
32365;SDS011;18837;46.832;16.838;2023-04-30T04:36:41;3.77;;;2.80;;
32365;SDS011;18837;46.832;16.838;2023-04-30T04:39:07;3.33;;;2.90;;
32365;SDS011;18837;46.832;16.838;2023-04-30T04:41:33;3.30;;;3.00;;
32365;SDS011;18837;46.832;16.838;2023-04-30T04:43:59;2.83;;;2.50;;
32365;SDS011;18837;46.832;16.838;2023-04-30T04:46:31;2.50;;;2.30;;
32365;SDS011;18837;46.832;16.838;2023-04-30T04:48:57;2.90;;;2.70;;
32365;SDS011;18837;46.832;16.838;2023-04-30T04:51:23;3.40;;;2.87;;
32365;SDS011;18837;46.832;16.838;2023-04-30T04:53:49;3.43;;;3.13;;
32365;SDS011;18837;46.832;16.838;2023-04-30T04:56:15;3.43;;;3.13;;
32365;SDS011;18837;46.832;16.838;2023-04-30T04:58:41;3.37;;;3.07;;
32365;SDS011;18837;46.832;16.838;2023-04-30T05:01:09;3.23;;;2.97;;
32365;SDS011;18837;46.832;16.838;2023-04-30T05:03:35;3.60;;;3.30;;
32365;SDS011;18837;46.832;16.838;2023-04-30T05:06:01;3.37;;;3.07;;
32365;SDS011;18837;46.832;16.838;2023-04-30T05:08:27;3.43;;;3.13;;
32365;SDS011;18837;46.832;16.838;2023-04-30T05:10:53;3.80;;;3.50;;
32365;SDS011;18837;46.832;16.838;2023-04-30T05:13:19;3.43;;;3.10;;
32365;SDS011;18837;46.832;16.838;2023-04-30T05:15:45;3.83;;;3.43;;
32365;SDS011;18837;46.832;16.838;2023-04-30T05:18:11;3.77;;;3.40;;
32365;SDS011;18837;46.832;16.838;2023-04-30T05:20:37;4.03;;;3.63;;
32365;SDS011;18837;46.832;16.838;2023-04-30T05:23:03;5.23;;;3.83;;
32365;SDS011;18837;46.832;16.838;2023-04-30T05:25:28;5.00;;;4.03;;
32365;SDS011;18837;46.832;16.838;2023-04-30T05:27:55;4.00;;;3.63;;
32365;SDS011;18837;46.832;16.838;2023-04-30T05:30:21;5.57;;;4.30;;
32365;SDS011;18837;46.832;16.838;2023-04-30T05:32:47;5.00;;;4.10;;
32365;SDS011;18837;46.832;16.838;2023-04-30T05:35:16;4.20;;;3.90;;
32365;SDS011;18837;46.832;16.838;2023-04-30T05:37:42;4.07;;;3.67;;
32365;SDS011;18837;46.832;16.838;2023-04-30T05:40:08;4.77;;;4.30;;
32365;SDS011;18837;46.832;16.838;2023-04-30T05:42:35;4.10;;;3.70;;
32365;SDS011;18837;46.832;16.838;2023-04-30T05:45:02;4.60;;;4.20;;
32365;SDS011;18837;46.832;16.838;2023-04-30T05:47:28;5.70;;;4.50;;
32365;SDS011;18837;46.832;16.838;2023-04-30T05:49:55;5.70;;;4.73;;
32365;SDS011;18837;46.832;16.838;2023-04-30T05:52:22;5.67;;;4.43;;
32365;SDS011;18837;46.832;16.838;2023-04-30T05:54:48;4.40;;;4.00;;
32365;SDS011;18837;46.832;16.838;2023-04-30T05:57:14;4.93;;;4.53;;
32365;SDS011;18837;46.832;16.838;2023-04-30T05:59:41;4.60;;;4.20;;
32365;SDS011;18837;46.832;16.838;2023-04-30T06:02:06;5.73;;;4.50;;
32365;SDS011;18837;46.832;16.838;2023-04-30T06:04:33;4.73;;;4.20;;
32365;SDS011;18837;46.832;16.838;2023-04-30T06:06:59;4.40;;;4.00;;
32365;SDS011;18837;46.832;16.838;2023-04-30T06:09:24;4.30;;;3.90;;
32365;SDS011;18837;46.832;16.838;2023-04-30T06:11:50;4.70;;;4.23;;
32365;SDS011;18837;46.832;16.838;2023-04-30T06:14:17;5.07;;;4.57;;
32365;SDS011;18837;46.832;16.838;2023-04-30T06:16:44;5.10;;;4.53;;
32365;SDS011;18837;46.832;16.838;2023-04-30T06:19:10;5.67;;;4.63;;
32365;SDS011;18837;46.832;16.838;2023-04-30T06:21:37;5.20;;;4.70;;
32365;SDS011;18837;46.832;16.838;2023-04-30T06:24:02;4.80;;;4.40;;
32365;SDS011;18837;46.832;16.838;2023-04-30T06:26:28;4.90;;;4.43;;
32365;SDS011;18837;46.832;16.838;2023-04-30T06:28:55;5.00;;;4.50;;
32365;SDS011;18837;46.832;16.838;2023-04-30T06:31:21;4.40;;;4.00;;
32365;SDS011;18837;46.832;16.838;2023-04-30T06:33:47;4.70;;;4.30;;
32365;SDS011;18837;46.832;16.838;2023-04-30T06:36:12;5.63;;;4.97;;
32365;SDS011;18837;46.832;16.838;2023-04-30T06:38:39;6.13;;;4.73;;
32365;SDS011;18837;46.832;16.838;2023-04-30T06:41:05;4.90;;;4.40;;
32365;SDS011;18837;46.832;16.838;2023-04-30T06:43:31;6.83;;;5.17;;
32365;SDS011;18837;46.832;16.838;2023-04-30T06:45:56;6.70;;;6.00;;
32365;SDS011;18837;46.832;16.838;2023-04-30T06:48:22;5.97;;;4.80;;
32365;SDS011;18837;46.832;16.838;2023-04-30T06:50:48;5.70;;;5.10;;
32365;SDS011;18837;46.832;16.838;2023-04-30T06:53:14;5.37;;;4.67;;
32365;SDS011;18837;46.832;16.838;2023-04-30T06:55:40;5.07;;;4.57;;
32365;SDS011;18837;46.832;16.838;2023-04-30T06:58:07;5.13;;;4.63;;
32365;SDS011;18837;46.832;16.838;2023-04-30T07:00:33;5.60;;;5.10;;
32365;SDS011;18837;46.832;16.838;2023-04-30T07:02:59;5.70;;;5.17;;
32365;SDS011;18837;46.832;16.838;2023-04-30T07:05:30;5.60;;;5.00;;
32365;SDS011;18837;46.832;16.838;2023-04-30T07:07:56;5.63;;;5.00;;
32365;SDS011;18837;46.832;16.838;2023-04-30T07:10:23;5.20;;;4.70;;
32365;SDS011;18837;46.832;16.838;2023-04-30T07:12:49;5.30;;;4.80;;
32365;SDS011;18837;46.832;16.838;2023-04-30T07:15:14;4.97;;;4.47;;
32365;SDS011;18837;46.832;16.838;2023-04-30T07:17:40;6.17;;;5.23;;
32365;SDS011;18837;46.832;16.838;2023-04-30T07:20:06;5.87;;;5.27;;
32365;SDS011;18837;46.832;16.838;2023-04-30T07:22:33;5.80;;;5.20;;
32365;SDS011;18837;46.832;16.838;2023-04-30T07:24:59;5.33;;;4.83;;
32365;SDS011;18837;46.832;16.838;2023-04-30T07:27:28;5.80;;;5.20;;
32365;SDS011;18837;46.832;16.838;2023-04-30T07:29:53;5.23;;;4.73;;
32365;SDS011;18837;46.832;16.838;2023-04-30T07:32:20;5.90;;;5.30;;
32365;SDS011;18837;46.832;16.838;2023-04-30T07:34:46;6.43;;;5.80;;
32365;SDS011;18837;46.832;16.838;2023-04-30T07:37:12;6.30;;;5.43;;
32365;SDS011;18837;46.832;16.838;2023-04-30T07:39:38;5.80;;;5.30;;
32365;SDS011;18837;46.832;16.838;2023-04-30T07:42:05;5.53;;;5.03;;
32365;SDS011;18837;46.832;16.838;2023-04-30T07:44:31;5.10;;;4.70;;
32365;SDS011;18837;46.832;16.838;2023-04-30T07:46:56;5.73;;;5.20;;
32365;SDS011;18837;46.832;16.838;2023-04-30T07:49:22;5.73;;;5.20;;
32365;SDS011;18837;46.832;16.838;2023-04-30T07:51:49;5.70;;;5.20;;
32365;SDS011;18837;46.832;16.838;2023-04-30T07:54:15;6.10;;;5.50;;
32365;SDS011;18837;46.832;16.838;2023-04-30T07:56:41;5.60;;;5.10;;
32365;SDS011;18837;46.832;16.838;2023-04-30T07:59:06;6.50;;;5.23;;
32365;SDS011;18837;46.832;16.838;2023-04-30T08:01:32;7.03;;;5.73;;
32365;SDS011;18837;46.832;16.838;2023-04-30T08:03:58;6.37;;;5.43;;
32365;SDS011;18837;46.832;16.838;2023-04-30T08:06:24;7.50;;;5.87;;
32365;SDS011;18837;46.832;16.838;2023-04-30T08:08:51;6.80;;;6.10;;
32365;SDS011;18837;46.832;16.838;2023-04-30T08:11:17;5.97;;;5.37;;
32365;SDS011;18837;46.832;16.838;2023-04-30T08:13:43;6.47;;;5.50;;
32365;SDS011;18837;46.832;16.838;2023-04-30T08:16:09;5.60;;;5.10;;
32365;SDS011;18837;46.832;16.838;2023-04-30T08:18:35;6.13;;;5.50;;
32365;SDS011;18837;46.832;16.838;2023-04-30T08:21:02;5.77;;;5.17;;
32365;SDS011;18837;46.832;16.838;2023-04-30T08:23:29;4.70;;;4.30;;
32365;SDS011;18837;46.832;16.838;2023-04-30T08:25:55;5.80;;;5.30;;
32365;SDS011;18837;46.832;16.838;2023-04-30T08:28:21;6.57;;;5.90;;
32365;SDS011;18837;46.832;16.838;2023-04-30T08:30:47;5.77;;;5.23;;
32365;SDS011;18837;46.832;16.838;2023-04-30T08:33:12;6.00;;;5.40;;
32365;SDS011;18837;46.832;16.838;2023-04-30T08:35:38;6.00;;;5.50;;
32365;SDS011;18837;46.832;16.838;2023-04-30T08:38:04;6.07;;;5.57;;
32365;SDS011;18837;46.832;16.838;2023-04-30T08:40:30;5.83;;;5.23;;
32365;SDS011;18837;46.832;16.838;2023-04-30T08:43:18;5.70;;;5.13;;
32365;SDS011;18837;46.832;16.838;2023-04-30T08:45:48;6.00;;;5.40;;
32365;SDS011;18837;46.832;16.838;2023-04-30T08:48:15;5.87;;;5.37;;
32365;SDS011;18837;46.832;16.838;2023-04-30T08:50:42;6.23;;;5.10;;
32365;SDS011;18837;46.832;16.838;2023-04-30T08:53:08;6.00;;;5.40;;
32365;SDS011;18837;46.832;16.838;2023-04-30T08:55:34;5.23;;;4.73;;
32365;SDS011;18837;46.832;16.838;2023-04-30T08:58:02;5.40;;;4.73;;
32365;SDS011;18837;46.832;16.838;2023-04-30T09:00:32;4.73;;;4.33;;
32365;SDS011;18837;46.832;16.838;2023-04-30T09:02:59;5.10;;;4.70;;
32365;SDS011;18837;46.832;16.838;2023-04-30T09:05:25;4.43;;;4.03;;
32365;SDS011;18837;46.832;16.838;2023-04-30T09:07:51;6.03;;;5.00;;
32365;SDS011;18837;46.832;16.838;2023-04-30T09:10:18;5.07;;;4.57;;
32365;SDS011;18837;46.832;16.838;2023-04-30T09:13:06;6.67;;;4.80;;
32365;SDS011;18837;46.832;16.838;2023-04-30T09:15:33;4.60;;;4.20;;
32365;SDS011;18837;46.832;16.838;2023-04-30T09:18:07;5.13;;;4.63;;
32365;SDS011;18837;46.832;16.838;2023-04-30T09:20:53;4.87;;;4.37;;
32365;SDS011;18837;46.832;16.838;2023-04-30T09:23:20;4.77;;;4.30;;
32365;SDS011;18837;46.832;16.838;2023-04-30T09:25:46;4.53;;;4.13;;
32365;SDS011;18837;46.832;16.838;2023-04-30T09:28:12;5.17;;;4.40;;
32365;SDS011;18837;46.832;16.838;2023-04-30T09:30:39;5.07;;;4.37;;
32365;SDS011;18837;46.832;16.838;2023-04-30T09:33:05;4.50;;;4.10;;
32365;SDS011;18837;46.832;16.838;2023-04-30T09:35:32;4.20;;;3.73;;
32365;SDS011;18837;46.832;16.838;2023-04-30T09:38:00;4.67;;;4.27;;
32365;SDS011;18837;46.832;16.838;2023-04-30T09:40:40;4.50;;;4.10;;
32365;SDS011;18837;46.832;16.838;2023-04-30T09:43:07;4.37;;;3.97;;
32365;SDS011;18837;46.832;16.838;2023-04-30T09:45:42;4.50;;;4.10;;
32365;SDS011;18837;46.832;16.838;2023-04-30T09:48:11;4.30;;;3.90;;
32365;SDS011;18837;46.832;16.838;2023-04-30T09:56:29;4.17;;;3.77;;
32365;SDS011;18837;46.832;16.838;2023-04-30T09:59:00;6.57;;;4.10;;
32365;SDS011;18837;46.832;16.838;2023-04-30T10:01:28;4.17;;;3.80;;
32365;SDS011;18837;46.832;16.838;2023-04-30T10:03:57;4.37;;;3.97;;
32365;SDS011;18837;46.832;16.838;2023-04-30T10:06:23;5.00;;;3.93;;
32365;SDS011;18837;46.832;16.838;2023-04-30T10:08:52;4.23;;;3.63;;
32365;SDS011;18837;46.832;16.838;2023-04-30T10:11:27;4.03;;;3.63;;
32365;SDS011;18837;46.832;16.838;2023-04-30T10:16:29;4.30;;;3.90;;
32365;SDS011;18837;46.832;16.838;2023-04-30T10:19:00;4.20;;;3.80;;
32365;SDS011;18837;46.832;16.838;2023-04-30T10:21:31;5.20;;;3.53;;
32365;SDS011;18837;46.832;16.838;2023-04-30T10:23:57;3.87;;;3.40;;
32365;SDS011;18837;46.832;16.838;2023-04-30T10:26:27;4.10;;;3.70;;
32365;SDS011;18837;46.832;16.838;2023-04-30T10:28:57;3.60;;;3.30;;
32365;SDS011;18837;46.832;16.838;2023-04-30T10:31:25;4.00;;;3.60;;
32365;SDS011;18837;46.832;16.838;2023-04-30T10:36:37;3.77;;;3.37;;
32365;SDS011;18837;46.832;16.838;2023-04-30T10:39:05;3.23;;;2.93;;
32365;SDS011;18837;46.832;16.838;2023-04-30T10:41:32;4.47;;;3.00;;
32365;SDS011;18837;46.832;16.838;2023-04-30T10:44:02;3.20;;;3.00;;
32365;SDS011;18837;46.832;16.838;2023-04-30T10:46:29;3.83;;;3.50;;
32365;SDS011;18837;46.832;16.838;2023-04-30T10:48:55;3.77;;;3.10;;
32365;SDS011;18837;46.832;16.838;2023-04-30T10:51:21;3.33;;;3.00;;
32365;SDS011;18837;46.832;16.838;2023-04-30T10:53:50;3.63;;;3.30;;
32365;SDS011;18837;46.832;16.838;2023-04-30T10:56:30;3.60;;;3.30;;
32365;SDS011;18837;46.832;16.838;2023-04-30T10:59:00;3.20;;;2.90;;
32365;SDS011;18837;46.832;16.838;2023-04-30T11:01:27;3.60;;;3.30;;
32365;SDS011;18837;46.832;16.838;2023-04-30T11:04:09;3.63;;;3.20;;
32365;SDS011;18837;46.832;16.838;2023-04-30T11:09:16;2.97;;;2.77;;
32365;SDS011;18837;46.832;16.838;2023-04-30T11:11:43;3.10;;;2.90;;
32365;SDS011;18837;46.832;16.838;2023-04-30T11:14:10;3.40;;;3.10;;
32365;SDS011;18837;46.832;16.838;2023-04-30T11:16:36;3.40;;;3.10;;
32365;SDS011;18837;46.832;16.838;2023-04-30T11:19:10;3.40;;;2.93;;
32365;SDS011;18837;46.832;16.838;2023-04-30T11:21:40;3.23;;;2.90;;
32365;SDS011;18837;46.832;16.838;2023-04-30T11:27:19;3.20;;;2.90;;
32365;SDS011;18837;46.832;16.838;2023-04-30T11:29:48;3.37;;;3.07;;
32365;SDS011;18837;46.832;16.838;2023-04-30T11:32:16;4.07;;;3.13;;
32365;SDS011;18837;46.832;16.838;2023-04-30T11:34:43;3.33;;;3.00;;
32365;SDS011;18837;46.832;16.838;2023-04-30T11:37:20;4.80;;;2.87;;
32365;SDS011;18837;46.832;16.838;2023-04-30T11:40:14;4.07;;;3.07;;
32365;SDS011;18837;46.832;16.838;2023-04-30T11:42:41;3.33;;;3.03;;
32365;SDS011;18837;46.832;16.838;2023-04-30T11:45:15;3.47;;;3.17;;
32365;SDS011;18837;46.832;16.838;2023-04-30T11:47:45;4.20;;;3.00;;
32365;SDS011;18837;46.832;16.838;2023-04-30T11:50:13;2.83;;;2.50;;
32365;SDS011;18837;46.832;16.838;2023-04-30T11:52:40;3.10;;;2.90;;
32365;SDS011;18837;46.832;16.838;2023-04-30T11:55:17;3.17;;;2.40;;
32365;SDS011;18837;46.832;16.838;2023-04-30T11:57:51;2.80;;;2.60;;
32365;SDS011;18837;46.832;16.838;2023-04-30T12:00:20;2.90;;;2.30;;
32365;SDS011;18837;46.832;16.838;2023-04-30T12:02:55;2.83;;;2.50;;
32365;SDS011;18837;46.832;16.838;2023-04-30T12:05:24;2.43;;;2.13;;
32365;SDS011;18837;46.832;16.838;2023-04-30T12:07:55;2.87;;;2.57;;
32365;SDS011;18837;46.832;16.838;2023-04-30T12:10:36;3.10;;;2.80;;
32365;SDS011;18837;46.832;16.838;2023-04-30T12:13:13;4.30;;;2.70;;
32365;SDS011;18837;46.832;16.838;2023-04-30T12:15:40;3.47;;;2.80;;
32365;SDS011;18837;46.832;16.838;2023-04-30T12:18:10;2.90;;;2.70;;
32365;SDS011;18837;46.832;16.838;2023-04-30T12:20:37;2.97;;;2.67;;
32365;SDS011;18837;46.832;16.838;2023-04-30T12:23:05;2.77;;;2.57;;
32365;SDS011;18837;46.832;16.838;2023-04-30T12:25:38;2.77;;;2.57;;
32365;SDS011;18837;46.832;16.838;2023-04-30T12:28:06;2.60;;;2.37;;
32365;SDS011;18837;46.832;16.838;2023-04-30T12:30:32;3.07;;;2.63;;
32365;SDS011;18837;46.832;16.838;2023-04-30T12:32:58;2.73;;;2.53;;
32365;SDS011;18837;46.832;16.838;2023-04-30T12:35:26;2.87;;;2.67;;
32365;SDS011;18837;46.832;16.838;2023-04-30T12:38:04;3.10;;;2.80;;
32365;SDS011;18837;46.832;16.838;2023-04-30T12:40:31;4.03;;;2.70;;
32365;SDS011;18837;46.832;16.838;2023-04-30T12:43:13;2.50;;;2.30;;
32365;SDS011;18837;46.832;16.838;2023-04-30T12:45:56;3.73;;;3.03;;
32365;SDS011;18837;46.832;16.838;2023-04-30T12:48:42;2.80;;;2.60;;
32365;SDS011;18837;46.832;16.838;2023-04-30T12:51:11;2.80;;;2.60;;
32365;SDS011;18837;46.832;16.838;2023-04-30T12:53:44;2.87;;;2.57;;
32365;SDS011;18837;46.832;16.838;2023-04-30T12:56:14;3.03;;;2.73;;
32365;SDS011;18837;46.832;16.838;2023-04-30T12:58:41;2.73;;;2.53;;
32365;SDS011;18837;46.832;16.838;2023-04-30T13:01:15;3.97;;;2.60;;
32365;SDS011;18837;46.832;16.838;2023-04-30T13:03:54;3.40;;;2.40;;
32365;SDS011;18837;46.832;16.838;2023-04-30T13:06:20;2.70;;;2.50;;
32365;SDS011;18837;46.832;16.838;2023-04-30T13:08:47;2.70;;;2.50;;
32365;SDS011;18837;46.832;16.838;2023-04-30T13:11:13;3.10;;;2.90;;
32365;SDS011;18837;46.832;16.838;2023-04-30T13:13:38;2.80;;;2.60;;
32365;SDS011;18837;46.832;16.838;2023-04-30T13:16:04;2.87;;;2.60;;
32365;SDS011;18837;46.832;16.838;2023-04-30T13:18:32;3.20;;;2.93;;
32365;SDS011;18837;46.832;16.838;2023-04-30T13:21:10;3.17;;;2.53;;
32365;SDS011;18837;46.832;16.838;2023-04-30T13:23:36;2.97;;;2.67;;
32365;SDS011;18837;46.832;16.838;2023-04-30T13:26:02;3.10;;;2.67;;
32365;SDS011;18837;46.832;16.838;2023-04-30T13:28:28;3.37;;;2.70;;
32365;SDS011;18837;46.832;16.838;2023-04-30T13:30:53;3.20;;;2.90;;
32365;SDS011;18837;46.832;16.838;2023-04-30T13:33:19;3.90;;;2.70;;
32365;SDS011;18837;46.832;16.838;2023-04-30T13:35:45;3.17;;;2.93;;
32365;SDS011;18837;46.832;16.838;2023-04-30T13:38:11;3.30;;;3.00;;
32365;SDS011;18837;46.832;16.838;2023-04-30T13:40:37;2.97;;;2.70;;
32365;SDS011;18837;46.832;16.838;2023-04-30T13:43:03;2.80;;;2.60;;
32365;SDS011;18837;46.832;16.838;2023-04-30T13:45:29;3.00;;;2.70;;
32365;SDS011;18837;46.832;16.838;2023-04-30T13:47:55;2.87;;;2.50;;
32365;SDS011;18837;46.832;16.838;2023-04-30T13:50:21;2.60;;;2.40;;
32365;SDS011;18837;46.832;16.838;2023-04-30T13:52:50;2.40;;;2.20;;
32365;SDS011;18837;46.832;16.838;2023-04-30T13:55:28;2.57;;;2.23;;
32365;SDS011;18837;46.832;16.838;2023-04-30T13:57:57;3.00;;;2.70;;
32365;SDS011;18837;46.832;16.838;2023-04-30T14:00:23;3.00;;;2.73;;
32365;SDS011;18837;46.832;16.838;2023-04-30T14:02:48;2.90;;;2.60;;
32365;SDS011;18837;46.832;16.838;2023-04-30T14:05:14;2.97;;;2.50;;
32365;SDS011;18837;46.832;16.838;2023-04-30T14:07:40;3.10;;;2.80;;
32365;SDS011;18837;46.832;16.838;2023-04-30T14:10:07;2.70;;;2.50;;
32365;SDS011;18837;46.832;16.838;2023-04-30T14:12:33;2.90;;;2.70;;
32365;SDS011;18837;46.832;16.838;2023-04-30T14:14:58;2.97;;;2.73;;
32365;SDS011;18837;46.832;16.838;2023-04-30T14:17:24;2.80;;;2.47;;
32365;SDS011;18837;46.832;16.838;2023-04-30T14:19:54;2.53;;;2.33;;
32365;SDS011;18837;46.832;16.838;2023-04-30T14:22:19;3.43;;;3.13;;
32365;SDS011;18837;46.832;16.838;2023-04-30T14:24:46;3.10;;;2.80;;
32365;SDS011;18837;46.832;16.838;2023-04-30T14:27:21;3.23;;;2.77;;
32365;SDS011;18837;46.832;16.838;2023-04-30T14:32:38;3.13;;;2.83;;
32365;SDS011;18837;46.832;16.838;2023-04-30T14:35:04;2.90;;;2.70;;
32365;SDS011;18837;46.832;16.838;2023-04-30T14:37:30;2.70;;;2.50;;
32365;SDS011;18837;46.832;16.838;2023-04-30T14:39:56;2.77;;;2.57;;
32365;SDS011;18837;46.832;16.838;2023-04-30T14:42:22;3.30;;;2.83;;
32365;SDS011;18837;46.832;16.838;2023-04-30T14:44:48;3.83;;;2.93;;
32365;SDS011;18837;46.832;16.838;2023-04-30T14:47:15;3.30;;;3.00;;
32365;SDS011;18837;46.832;16.838;2023-04-30T14:49:41;3.00;;;2.80;;
32365;SDS011;18837;46.832;16.838;2023-04-30T14:52:07;2.63;;;2.43;;
32365;SDS011;18837;46.832;16.838;2023-04-30T14:54:33;2.87;;;2.63;;
32365;SDS011;18837;46.832;16.838;2023-04-30T14:56:59;2.67;;;2.47;;
32365;SDS011;18837;46.832;16.838;2023-04-30T14:59:25;2.93;;;2.63;;
32365;SDS011;18837;46.832;16.838;2023-04-30T15:01:54;2.80;;;2.60;;